Time;durP1;ratioP1;P1;durP2;ratioP2;P2;SDS_P1;SDS_P2;PMS_P1;PMS_P2;Temp;Humidity;BMP_temperature;BMP_pressure;BME280_temperature;BME280_humidity;BME280_pressure;Samples;Min_cycle;Max_cycle;Signal;HPM_P1;HPM_P2
2023/12/23 00:04:25;;;;;;;33.83;5.97;;;9.90;99.90;;;;;;10581056;27;20039;-68
2023/12/23 00:09:27;;;;;;;40.58;6.07;;;10.10;99.90;;;;;;10580953;27;20043;-68
2023/12/23 00:14:30;;;;;;;36.27;5.07;;;10.10;99.90;;;;;;10581817;27;20047;-66
2023/12/23 00:19:32;;;;;;;31.27;4.40;;;9.90;99.90;;;;;;10581906;27;20062;-68
2023/12/23 00:24:34;;;;;;;28.77;4.00;;;9.90;99.90;;;;;;10583870;27;20110;-67
2023/12/23 00:29:38;;;;;;;27.63;4.40;;;9.90;99.90;;;;;;10591603;27;20051;-68
2023/12/23 00:34:40;;;;;;;31.23;5.13;;;10.10;99.90;;;;;;10592797;27;20069;-67
2023/12/23 00:39:42;;;;;;;22.83;3.15;;;10.10;99.90;;;;;;10592791;27;20051;-69
2023/12/23 00:44:46;;;;;;;34.50;5.75;;;10.20;99.90;;;;;;10590361;27;20520;-68
2023/12/23 00:49:48;;;;;;;16.70;2.35;;;10.10;99.90;;;;;;10592768;27;20047;-68
2023/12/23 00:54:51;;;;;;;3.92;1.27;;;10.10;99.90;;;;;;10592457;27;20143;-68
2023/12/23 00:59:55;;;;;;;0.10;0.10;;;9.90;99.90;;;;;;10590915;27;20050;-67
2023/12/23 01:04:57;;;;;;;0.20;0.20;;;9.60;99.90;;;;;;10592341;27;20932;-69
2023/12/23 01:09:59;;;;;;;0.10;0.10;;;9.70;99.90;;;;;;10593115;27;20510;-68
2023/12/23 01:15:10;;;;;;;0.32;0.32;;;9.60;99.90;;;;;;10587320;27;20056;-67
2023/12/23 01:20:13;;;;;;;0.75;0.75;;;9.40;99.90;;;;;;10591536;27;20893;-67
2023/12/23 01:25:16;;;;;;;;;;;9.60;99.90;;;;;;10592115;27;20818;-68
2023/12/23 01:30:19;;;;;;;0.00;0.00;;;9.50;99.90;;;;;;10593377;27;19923;-67
2023/12/23 01:35:21;;;;;;;1.00;1.00;;;9.50;99.90;;;;;;10575987;27;20534;-68
2023/12/23 01:40:24;;;;;;;23.85;3.95;;;9.60;99.90;;;;;;10590837;27;20147;-68
2023/12/23 01:45:28;;;;;;;33.33;4.80;;;9.70;99.90;;;;;;10587309;27;20865;-68
2023/12/23 01:50:32;;;;;;;0.10;0.10;;;9.60;99.90;;;;;;10590228;27;20434;-68
2023/12/23 01:55:34;;;;;;;0.13;0.13;;;9.40;99.90;;;;;;10589761;27;20525;-68
2023/12/23 02:00:38;;;;;;;0.10;0.10;;;9.30;99.90;;;;;;10589278;27;20127;-67
2023/12/23 02:05:42;;;;;;;0.15;0.15;;;9.50;99.90;;;;;;10582837;27;20043;-67
2023/12/23 02:10:47;;;;;;;0.10;0.10;;;9.60;99.90;;;;;;10588843;27;20417;-68
2023/12/23 02:15:54;;;;;;;0.20;0.20;;;9.70;99.90;;;;;;10588691;27;20142;-67
2023/12/23 02:20:58;;;;;;;23.35;2.38;;;9.70;99.90;;;;;;10592041;27;20053;-69
2023/12/23 02:26:04;;;;;;;30.48;3.15;;;9.60;99.90;;;;;;10588245;27;20051;-69
2023/12/23 02:31:07;;;;;;;43.70;5.38;;;9.70;99.90;;;;;;10588195;27;20076;-67
2023/12/23 02:36:11;;;;;;;30.02;4.95;;;9.60;99.90;;;;;;10586854;27;20742;-67
2023/12/23 02:41:13;;;;;;;40.58;5.32;;;9.70;99.90;;;;;;10589468;27;20040;-66
2023/12/23 02:46:15;;;;;;;28.55;4.18;;;9.80;99.90;;;;;;10586529;27;20699;-67
2023/12/23 02:51:18;;;;;;;39.05;5.60;;;9.80;99.90;;;;;;10588311;27;20407;-67
2023/12/23 02:56:21;;;;;;;28.67;5.10;;;9.80;99.90;;;;;;10586402;27;20126;-66
2023/12/23 03:01:23;;;;;;;23.75;3.72;;;10.00;99.90;;;;;;10585919;27;20090;-67
2023/12/23 03:06:26;;;;;;;32.78;4.40;;;9.80;99.90;;;;;;10586743;27;20051;-67
2023/12/23 03:11:28;;;;;;;17.48;3.75;;;10.00;99.90;;;;;;10590225;27;20059;-66
2023/12/23 03:16:35;;;;;;;21.80;2.72;;;9.80;99.90;;;;;;10586566;27;20394;-67
2023/12/23 03:21:45;;;;;;;19.80;3.28;;;9.90;99.90;;;;;;10583155;27;20133;-67
2023/12/23 03:26:47;;;;;;;29.77;5.65;;;9.90;99.90;;;;;;10587195;27;20051;-67
2023/12/23 03:31:49;;;;;;;24.27;3.55;;;10.00;99.90;;;;;;10587079;27;20058;-67
2023/12/23 03:36:53;;;;;;;21.73;4.53;;;10.00;99.90;;;;;;10588397;27;20043;-67
2023/12/23 03:41:55;;;;;;;20.23;2.95;;;9.90;99.90;;;;;;10583539;27;20051;-67
2023/12/23 03:46:57;;;;;;;28.08;4.22;;;9.90;99.90;;;;;;10584520;27;20899;-67
2023/12/23 03:52:00;;;;;;;16.65;2.22;;;9.90;99.90;;;;;;10587845;27;20035;-67
2023/12/23 04:15:30;;;;;;;22.52;3.83;;;9.90;99.90;;;;;;10575535;27;20771;-67
2023/12/23 04:20:32;;;;;;;23.42;4.55;;;10.00;99.90;;;;;;10600238;27;20606;-67
2023/12/23 04:25:35;;;;;;;32.03;5.77;;;10.00;99.90;;;;;;10597457;27;20067;-67
2023/12/23 04:30:39;;;;;;;35.40;4.75;;;9.90;99.90;;;;;;10591911;27;20543;-66
2023/12/23 04:35:41;;;;;;;28.73;5.85;;;10.00;99.90;;;;;;10593877;27;20051;-68
2023/12/23 04:40:43;;;;;;;20.13;3.55;;;10.00;99.90;;;;;;10596625;27;20061;-67
2023/12/23 04:45:46;;;;;;;25.00;4.95;;;10.00;99.90;;;;;;10587526;27;20047;-67
2023/12/23 04:50:48;;;;;;;33.28;4.07;;;10.10;99.90;;;;;;10589335;27;20050;-66
2023/12/23 04:55:51;;;;;;;26.20;4.37;;;10.10;99.90;;;;;;10591855;27;20051;-67
2023/12/23 05:00:54;;;;;;;34.63;5.70;;;10.10;99.90;;;;;;10586183;27;20107;-72
2023/12/23 05:05:56;;;;;;;19.65;4.45;;;10.10;99.90;;;;;;10596034;27;20154;-67
2023/12/23 05:10:58;;;;;;;22.40;3.97;;;10.20;99.90;;;;;;10596315;27;20107;-66
2023/12/23 05:16:02;;;;;;;27.27;4.33;;;10.10;99.90;;;;;;10587064;27;20051;-66
2023/12/23 05:21:05;;;;;;;30.45;5.45;;;10.20;99.90;;;;;;10596224;27;20043;-67
2023/12/23 05:26:08;;;;;;;19.88;3.15;;;10.10;99.90;;;;;;10568143;27;20066;-67
2023/12/23 05:31:13;;;;;;;35.08;4.43;;;10.20;99.90;;;;;;10549387;27;20103;-67
2023/12/23 05:36:15;;;;;;;37.25;5.75;;;10.20;99.90;;;;;;10557195;27;20084;-67
2023/12/23 05:41:17;;;;;;;21.02;3.03;;;10.10;99.90;;;;;;10559392;27;20047;-67
2023/12/23 05:46:20;;;;;;;24.08;5.40;;;10.20;99.90;;;;;;10556877;27;20075;-66
2023/12/23 05:51:22;;;;;;;16.27;3.40;;;10.20;99.90;;;;;;10557173;27;20390;-68
2023/12/23 05:56:24;;;;;;;31.35;5.40;;;10.20;99.90;;;;;;10562557;27;20387;-67
2023/12/23 06:01:28;;;;;;;33.85;5.10;;;10.10;99.90;;;;;;10559355;27;20059;-66
2023/12/23 06:06:30;;;;;;;25.10;3.50;;;10.20;99.90;;;;;;10543123;27;20196;-67
2023/12/23 06:11:32;;;;;;;17.60;2.80;;;10.10;99.90;;;;;;10551816;27;20071;-64
2023/12/23 06:16:40;;;;;;;25.40;4.32;;;10.40;99.90;;;;;;10561484;27;20058;-67
2023/12/23 06:21:46;;;;;;;22.50;4.85;;;10.20;99.90;;;;;;10551278;27;20105;-65
2023/12/23 06:26:48;;;;;;;31.52;5.60;;;10.10;99.90;;;;;;10552988;27;20075;-67
2023/12/23 06:31:52;;;;;;;35.17;5.68;;;10.10;99.90;;;;;;10559343;27;21002;-66
2023/12/23 06:36:54;;;;;;;28.02;5.75;;;10.20;99.90;;;;;;10553170;27;20092;-69
2023/12/23 06:41:56;;;;;;;31.48;5.30;;;10.00;99.90;;;;;;10553913;27;20043;-67
2023/12/23 06:46:59;;;;;;;35.05;4.30;;;10.10;99.90;;;;;;10549490;27;20051;-66
2023/12/23 06:52:01;;;;;;;22.65;3.60;;;10.10;99.90;;;;;;10555023;27;20166;-66
2023/12/23 06:57:04;;;;;;;35.13;5.72;;;10.10;99.90;;;;;;10560918;27;20051;-67
2023/12/23 07:02:08;;;;;;;26.48;4.60;;;10.20;99.90;;;;;;10547180;27;20082;-66
2023/12/23 07:07:11;;;;;;;45.58;7.45;;;10.30;99.90;;;;;;10569726;27;20078;-67
2023/12/23 07:12:13;;;;;;;37.65;6.28;;;10.40;99.90;;;;;;10562292;27;20047;-66
2023/12/23 07:17:16;;;;;;;37.83;7.10;;;10.40;99.90;;;;;;10543376;27;20610;-67
2023/12/23 07:22:18;;;;;;;34.63;5.25;;;10.30;99.90;;;;;;10553316;27;20043;-66
2023/12/23 07:27:21;;;;;;;18.52;3.97;;;10.40;99.90;;;;;;10556351;27;20165;-67
2023/12/23 07:32:27;;;;;;;16.13;3.40;;;10.40;99.90;;;;;;10560884;27;20072;-68
2023/12/23 07:37:29;;;;;;;39.17;6.40;;;10.50;99.90;;;;;;10555394;27;20071;-67
2023/12/23 07:42:32;;;;;;;13.48;2.58;;;10.30;99.90;;;;;;10561324;27;20066;-67
2023/12/23 07:47:35;;;;;;;17.85;3.90;;;10.40;99.90;;;;;;10550861;27;20138;-67
2023/12/23 07:52:37;;;;;;;24.02;4.22;;;10.40;99.90;;;;;;10546177;27;20050;-67
2023/12/23 07:57:39;;;;;;;18.83;4.05;;;10.40;99.90;;;;;;10552728;27;20051;-67
2023/12/23 08:02:45;;;;;;;8.95;2.08;;;10.40;99.90;;;;;;10553853;27;20067;-67
2023/12/23 08:07:47;;;;;;;18.45;3.25;;;10.60;99.90;;;;;;10546328;27;20062;-65
2023/12/23 08:12:49;;;;;;;27.73;5.20;;;10.20;99.90;;;;;;10550578;28;20126;-66
2023/12/23 08:17:53;;;;;;;20.65;2.95;;;10.10;99.90;;;;;;10545609;27;20068;-68
2023/12/23 08:22:55;;;;;;;24.02;4.43;;;10.10;99.90;;;;;;10546231;28;20874;-67
2023/12/23 08:27:57;;;;;;;29.25;5.72;;;10.10;99.90;;;;;;10540401;28;20774;-67
2023/12/23 08:33:00;;;;;;;23.35;3.60;;;10.20;99.90;;;;;;10549797;28;20044;-65
2023/12/23 08:38:04;;;;;;;23.77;3.20;;;10.30;99.90;;;;;;10553259;28;20043;-67
2023/12/23 08:43:06;;;;;;;20.67;2.97;;;10.20;99.90;;;;;;10552764;27;20039;-67
2023/12/23 08:48:09;;;;;;;23.08;3.30;;;10.30;99.90;;;;;;10539899;28;20055;-69
2023/12/23 08:53:11;;;;;;;23.60;5.03;;;10.40;99.90;;;;;;10551409;28;20530;-68
2023/12/23 08:58:14;;;;;;;23.95;5.30;;;10.30;99.90;;;;;;10550955;27;20059;-65
2023/12/23 09:03:17;;;;;;;24.52;5.45;;;10.30;99.90;;;;;;10559114;27;20079;-67
2023/12/23 09:08:20;;;;;;;30.23;5.25;;;10.40;99.90;;;;;;10555576;27;20918;-67
2023/12/23 09:13:22;;;;;;;31.70;5.28;;;10.40;99.90;;;;;;10549370;27;20979;-67
2023/12/23 09:18:25;;;;;;;38.58;5.97;;;10.30;99.90;;;;;;10550420;27;20051;-67
2023/12/23 09:23:27;;;;;;;32.72;5.95;;;10.40;99.90;;;;;;10557627;27;20053;-68
2023/12/23 09:28:29;;;;;;;29.60;4.17;;;10.30;99.90;;;;;;10555581;27;20116;-66
2023/12/23 09:33:33;;;;;;;34.70;5.57;;;10.40;99.90;;;;;;10559050;27;20040;-67
2023/12/23 09:38:35;;;;;;;36.10;4.45;;;10.50;99.90;;;;;;10551130;27;20095;-67
2023/12/23 09:43:37;;;;;;;35.00;6.35;;;10.60;99.90;;;;;;10556279;27;20086;-66
2023/12/23 09:48:40;;;;;;;34.70;4.23;;;10.40;99.90;;;;;;10540416;27;20228;-66
2023/12/23 09:53:49;;;;;;;35.95;3.50;;;10.50;99.90;;;;;;10552845;27;20151;-67
2023/12/23 09:58:52;;;;;;;28.02;5.00;;;10.50;99.90;;;;;;10556584;27;22868;-66
2023/12/23 10:03:55;;;;;;;32.90;4.05;;;10.70;99.90;;;;;;10557674;27;20047;-66
2023/12/23 10:08:57;;;;;;;34.15;6.05;;;10.50;99.90;;;;;;10550193;27;20082;-66
2023/12/23 10:13:59;;;;;;;36.00;4.55;;;10.60;99.90;;;;;;10556681;27;20082;-68
2023/12/23 10:19:03;;;;;;;31.05;5.30;;;10.70;99.90;;;;;;10553224;27;20051;-66
2023/12/23 10:24:06;;;;;;;34.80;4.72;;;10.80;99.90;;;;;;10557815;27;20062;-67
2023/12/23 10:29:11;;;;;;;25.02;4.45;;;10.90;99.90;;;;;;10558650;27;20067;-67
2023/12/23 10:34:22;;;;;;;22.85;4.68;;;11.00;99.90;;;;;;10555576;27;20059;-68
2023/12/23 10:39:28;;;;;;;25.08;4.28;;;11.00;99.90;;;;;;10546375;27;20070;-67
2023/12/23 10:44:32;;;;;;;19.55;4.57;;;11.10;99.90;;;;;;10551713;27;20134;-67
2023/12/23 10:49:36;;;;;;;19.75;3.15;;;11.10;99.90;;;;;;10556952;27;20054;-68
2023/12/23 10:54:40;;;;;;;17.75;3.40;;;11.10;99.90;;;;;;10564279;27;20426;-67
2023/12/23 10:59:42;;;;;;;24.98;4.00;;;11.00;99.90;;;;;;10562632;27;20054;-67
2023/12/23 11:04:49;;;;;;;19.20;3.50;;;11.00;99.90;;;;;;10552392;27;20146;-66
2023/12/23 11:09:53;;;;;;;26.50;3.08;;;11.00;99.90;;;;;;10553841;27;20051;-68
2023/12/23 11:14:56;;;;;;;21.58;3.80;;;10.90;99.90;;;;;;10549728;27;20062;-66
2023/12/23 11:20:04;;;;;;;22.13;3.60;;;11.00;99.90;;;;;;10558633;27;20088;-67
2023/12/23 11:25:36;;;;;;;14.93;2.75;;;11.00;99.90;;;;;;10558872;27;20496;-66
2023/12/23 11:30:46;;;;;;;18.52;2.95;;;11.20;99.90;;;;;;10561813;27;20590;-66
2023/12/23 11:35:51;;;;;;;17.13;3.10;;;11.00;99.90;;;;;;10560446;27;20545;-69
2023/12/23 11:40:53;;;;;;;14.25;3.15;;;11.00;99.90;;;;;;10563286;27;20054;-71
2023/12/23 11:45:56;;;;;;;14.48;2.47;;;11.10;99.90;;;;;;10558992;27;20062;-66
2023/12/23 11:51:00;;;;;;;9.70;1.63;;;11.00;99.90;;;;;;10565593;27;20051;-66
2023/12/23 11:56:04;;;;;;;13.77;2.80;;;11.10;99.90;;;;;;10574385;27;20052;-67
2023/12/23 12:01:07;;;;;;;17.95;3.53;;;11.10;99.90;;;;;;10570740;27;20156;-66
2023/12/23 12:06:11;;;;;;;20.40;3.00;;;11.10;99.90;;;;;;10566004;27;20047;-65
2023/12/23 12:11:13;;;;;;;13.48;2.50;;;11.10;99.90;;;;;;10549032;27;20120;-66
2023/12/23 12:16:15;;;;;;;10.82;2.55;;;11.00;99.90;;;;;;10552308;27;20058;-69
2023/12/23 12:21:19;;;;;;;16.83;2.97;;;11.20;99.90;;;;;;10541351;28;20422;-68
2023/12/23 12:26:21;;;;;;;13.07;2.88;;;11.30;99.90;;;;;;10554603;28;20058;-72
2023/12/23 12:31:23;;;;;;;8.23;1.80;;;11.30;99.90;;;;;;10556294;28;20048;-69
2023/12/23 12:36:27;;;;;;;16.13;3.63;;;11.30;99.90;;;;;;10561325;27;20047;-68
2023/12/23 12:41:30;;;;;;;10.10;1.88;;;11.20;99.90;;;;;;10574587;27;20051;-67
2023/12/23 12:46:33;;;;;;;18.00;3.20;;;11.20;99.90;;;;;;10561207;27;20610;-70
2023/12/23 12:51:36;;;;;;;;;;;11.20;99.90;;;;;;10571355;27;20126;-69
2023/12/23 12:56:41;;;;;;;15.63;2.10;;;11.20;99.90;;;;;;10563882;27;19926;-67
2023/12/23 13:01:43;;;;;;;27.80;3.63;;;11.10;99.90;;;;;;10563641;27;20052;-68
2023/12/23 13:06:47;;;;;;;19.48;3.13;;;11.10;99.90;;;;;;10560050;27;20048;-67
2023/12/23 13:11:49;;;;;;;14.40;2.65;;;11.10;99.90;;;;;;10552400;27;20051;-66
2023/12/23 13:16:51;;;;;;;15.87;3.27;;;11.00;99.90;;;;;;10556304;27;20402;-68
2023/12/23 13:21:55;;;;;;;14.15;3.10;;;11.10;99.90;;;;;;10554190;27;20140;-68
2023/12/23 13:26:58;;;;;;;19.63;2.53;;;11.00;99.90;;;;;;10560543;27;20326;-66
2023/12/23 13:32:01;;;;;;;23.90;3.83;;;10.80;99.90;;;;;;10559722;27;20047;-69
2023/12/23 13:37:05;;;;;;;13.17;1.80;;;11.00;99.90;;;;;;10554006;27;20078;-68
2023/12/23 13:42:07;;;;;;;15.30;3.47;;;10.90;99.90;;;;;;10559008;27;20482;-68
2023/12/23 13:47:09;;;;;;;25.23;4.25;;;10.80;99.90;;;;;;10549392;27;20151;-68
2023/12/23 13:52:15;;;;;;;14.80;2.35;;;10.90;99.90;;;;;;10554678;27;20100;-67
2023/12/23 13:57:19;;;;;;;14.57;1.60;;;10.80;99.90;;;;;;10560684;27;20047;-67
2023/12/23 14:02:24;;;;;;;28.23;3.78;;;10.90;99.90;;;;;;10562075;27;20593;-68
2023/12/23 14:07:27;;;;;;;22.27;3.58;;;10.80;99.90;;;;;;10561459;27;20530;-69
2023/12/23 14:12:29;;;;;;;23.17;3.65;;;10.80;99.90;;;;;;10559679;27;20055;-66
2023/12/23 14:17:35;;;;;;;14.13;2.13;;;10.80;99.90;;;;;;10556044;27;20214;-68
2023/12/23 14:22:38;;;;;;;16.30;2.65;;;11.00;99.90;;;;;;10554992;27;20058;-66
2023/12/23 14:27:40;;;;;;;23.42;2.67;;;11.00;99.90;;;;;;10567852;27;20050;-67
2023/12/23 14:32:43;;;;;;;20.90;3.73;;;10.80;99.90;;;;;;10570613;27;20051;-67
2023/12/23 14:37:46;;;;;;;17.23;2.10;;;10.80;99.90;;;;;;10562193;27;20070;-66
2023/12/23 14:42:48;;;;;;;9.88;1.77;;;10.70;99.90;;;;;;10565304;27;20076;-68
2023/12/23 14:47:50;;;;;;;28.48;4.25;;;10.90;99.90;;;;;;10556101;27;20142;-66
2023/12/23 14:52:54;;;;;;;10.13;2.80;;;10.80;99.90;;;;;;10553073;27;20500;-67
2023/12/23 14:57:56;;;;;;;16.00;2.08;;;10.80;99.90;;;;;;10545539;27;20051;-68
2023/12/23 15:02:58;;;;;;;23.97;2.33;;;10.80;99.90;;;;;;10541964;27;20150;-68
2023/12/23 15:08:01;;;;;;;21.45;3.97;;;10.80;99.90;;;;;;10539645;27;20059;-68
2023/12/23 15:13:04;;;;;;;20.65;5.63;;;10.80;99.90;;;;;;10546915;27;20141;-71
2023/12/23 15:18:06;;;;;;;20.77;4.30;;;10.80;99.90;;;;;;10553279;27;20100;-68
2023/12/23 15:23:10;;;;;;;18.60;2.33;;;10.70;99.90;;;;;;10554277;27;20161;-68
2023/12/23 15:28:12;;;;;;;6.97;1.50;;;10.80;99.90;;;;;;10546098;27;20212;-69
2023/12/23 15:33:15;;;;;;;14.23;2.70;;;10.80;99.90;;;;;;10541864;27;20059;-70
2023/12/23 15:38:20;;;;;;;14.82;3.25;;;10.70;99.90;;;;;;10552269;27;20796;-69
2023/12/23 15:43:22;;;;;;;18.10;2.33;;;10.80;99.90;;;;;;10539033;27;20081;-69
2023/12/23 15:48:24;;;;;;;9.50;1.33;;;10.60;99.90;;;;;;10547371;27;20043;-68
2023/12/23 15:53:28;;;;;;;9.17;2.50;;;10.80;99.90;;;;;;10546571;27;20051;-68
2023/12/23 15:58:30;;;;;;;18.42;3.28;;;11.00;99.90;;;;;;10550465;27;20878;-68
2023/12/23 16:03:32;;;;;;;12.88;2.72;;;11.10;99.90;;;;;;10547721;27;20096;-68
2023/12/23 16:08:35;;;;;;;17.10;3.00;;;10.80;99.90;;;;;;10541045;27;20196;-69
2023/12/23 16:13:38;;;;;;;18.27;3.72;;;10.70;99.90;;;;;;10543239;27;20090;-68
2023/12/23 16:18:40;;;;;;;20.10;2.67;;;10.70;99.90;;;;;;10546740;28;20051;-68
2023/12/23 16:23:45;;;;;;;23.33;3.95;;;10.70;99.90;;;;;;10545320;27;20079;-68
2023/12/23 16:28:47;;;;;;;18.75;3.42;;;10.60;99.90;;;;;;10544882;28;20150;-69
2023/12/23 16:33:49;;;;;;;17.80;3.28;;;10.60;99.90;;;;;;10545482;28;20047;-69
2023/12/23 16:38:53;;;;;;;14.88;3.60;;;10.60;99.90;;;;;;10546608;28;20205;-68
2023/12/23 16:43:55;;;;;;;14.93;3.65;;;10.70;99.90;;;;;;10549704;28;20043;-68
2023/12/23 16:48:58;;;;;;;17.27;4.13;;;10.70;99.90;;;;;;10552423;28;20050;-68
2023/12/23 16:54:02;;;;;;;23.10;3.25;;;10.80;99.90;;;;;;10544076;28;20054;-68
2023/12/23 16:59:04;;;;;;;15.88;3.03;;;10.80;99.90;;;;;;10549841;28;20120;-68
2023/12/23 17:04:07;;;;;;;25.33;3.03;;;10.80;99.90;;;;;;10542510;28;22499;-69
2023/12/23 17:09:10;;;;;;;20.60;3.40;;;10.80;99.90;;;;;;10544018;28;20477;-70
2023/12/23 17:14:12;;;;;;;16.45;2.72;;;10.90;99.90;;;;;;10548284;28;20892;-67
2023/12/23 17:19:14;;;;;;;28.75;3.25;;;10.90;99.90;;;;;;10537025;27;20052;-69
2023/12/23 17:24:18;;;;;;;19.17;3.13;;;10.70;99.90;;;;;;10556252;27;20071;-68
2023/12/23 17:29:20;;;;;;;16.38;3.60;;;10.70;99.90;;;;;;10548753;27;20082;-69
2023/12/23 17:34:22;;;;;;;11.30;2.25;;;10.90;99.90;;;;;;10551141;27;20145;-67
2023/12/23 17:39:26;;;;;;;20.63;3.08;;;10.70;99.90;;;;;;10555106;27;20576;-68
2023/12/23 17:44:28;;;;;;;15.85;2.50;;;10.70;99.90;;;;;;10552514;27;20439;-69
2023/12/23 17:49:30;;;;;;;24.83;4.78;;;10.70;99.90;;;;;;10546718;27;20096;-66
2023/12/23 17:54:34;;;;;;;13.77;2.47;;;10.70;99.90;;;;;;10554762;27;20085;-67
2023/12/23 17:59:36;;;;;;;19.38;3.50;;;10.80;99.90;;;;;;10555797;27;20063;-71
2023/12/23 18:04:38;;;;;;;14.50;3.80;;;10.60;99.90;;;;;;10561352;27;20115;-60
2023/12/23 18:09:41;;;;;;;21.58;3.72;;;10.60;99.90;;;;;;10544890;27;20588;-67
2023/12/23 18:14:43;;;;;;;18.75;3.10;;;10.50;99.90;;;;;;10562032;27;20075;-65
2023/12/23 18:19:45;;;;;;;21.42;3.00;;;10.40;99.90;;;;;;10554114;27;20051;-67
2023/12/23 18:24:49;;;;;;;19.50;2.92;;;10.40;99.90;;;;;;10567079;27;20518;-65
2023/12/23 18:29:51;;;;;;;17.40;2.83;;;10.30;99.90;;;;;;10568058;27;20223;-65
2023/12/23 18:34:53;;;;;;;24.40;4.10;;;10.30;99.90;;;;;;10559694;27;20576;-67
2023/12/23 18:39:57;;;;;;;20.77;3.90;;;10.50;99.90;;;;;;10541790;27;20053;-69
2023/12/23 18:45:00;;;;;;;27.25;4.75;;;10.50;99.90;;;;;;10561428;27;20103;-67
2023/12/23 18:50:02;;;;;;;18.65;2.72;;;10.30;99.90;;;;;;10549316;27;20052;-66
2023/12/23 18:55:08;;;;;;;13.95;2.22;;;10.50;99.90;;;;;;10557214;27;20080;-66
2023/12/23 19:00:11;;;;;;;17.20;4.20;;;10.50;99.90;;;;;;10546036;27;20081;-68
2023/12/23 19:05:13;;;;;;;;;;;10.30;99.90;;;;;;10560439;27;20161;-69
2023/12/23 19:10:17;;;;;;;14.88;2.47;;;10.50;99.90;;;;;;10549379;27;19927;-70
2023/12/23 19:15:19;;;;;;;19.17;4.15;;;10.60;99.90;;;;;;10556591;27;20475;-71
2023/12/23 19:20:21;;;;;;;20.17;2.85;;;10.50;99.90;;;;;;10566901;27;20043;-70
2023/12/23 19:25:24;;;;;;;13.88;3.08;;;10.50;99.90;;;;;;10557437;27;20149;-70
2023/12/23 19:30:27;;;;;;;17.42;4.03;;;10.60;99.90;;;;;;10552370;27;20062;-68
2023/12/23 19:35:29;;;;;;;14.07;2.53;;;10.70;99.90;;;;;;10553278;27;20414;-69
2023/12/23 19:40:32;;;;;;;11.73;2.90;;;10.60;99.90;;;;;;10559623;27;20062;-68
2023/12/23 19:45:34;;;;;;;25.27;4.13;;;10.50;99.90;;;;;;10547121;27;20048;-65
2023/12/23 19:50:37;;;;;;;13.43;2.03;;;10.50;99.90;;;;;;10542973;27;20059;-67
2023/12/23 19:55:43;;;;;;;23.92;3.28;;;10.50;99.90;;;;;;10552095;27;20055;-64
2023/12/23 20:00:45;;;;;;;11.82;2.53;;;10.50;99.90;;;;;;10552052;27;20089;-64
2023/12/23 20:05:47;;;;;;;21.17;2.23;;;10.60;99.90;;;;;;10548751;27;20081;-65
2023/12/23 20:10:51;;;;;;;23.23;4.40;;;10.60;99.90;;;;;;10543320;27;20540;-64
2023/12/23 20:15:53;;;;;;;21.17;3.78;;;10.40;99.90;;;;;;10541411;27;20184;-66
2023/12/23 20:20:55;;;;;;;25.55;4.07;;;10.40;99.90;;;;;;10543083;28;20054;-64
2023/12/23 20:25:58;;;;;;;14.45;3.22;;;10.30;99.90;;;;;;10549324;28;20043;-67
2023/12/23 20:31:00;;;;;;;20.77;2.78;;;10.40;99.90;;;;;;10558304;28;20154;-66
2023/12/23 20:36:03;;;;;;;12.15;2.65;;;10.60;99.90;;;;;;10552813;27;20080;-65
2023/12/23 20:41:07;;;;;;;23.65;4.45;;;10.50;99.90;;;;;;10544240;28;20399;-65
2023/12/23 20:46:08;;;;;;;18.10;3.22;;;10.40;99.90;;;;;;10560331;28;20253;-65
2023/12/23 20:51:10;;;;;;;24.52;4.18;;;10.60;99.90;;;;;;10545649;28;22697;-65
2023/12/23 20:56:21;;;;;;;14.48;3.17;;;10.60;99.90;;;;;;10558225;27;20647;-65
2023/12/23 21:01:23;;;;;;;14.00;2.92;;;10.70;99.90;;;;;;10563927;27;20565;-64
2023/12/23 21:06:25;;;;;;;16.07;2.70;;;10.50;99.90;;;;;;10559244;27;20067;-66
2023/12/23 21:11:29;;;;;;;23.03;3.37;;;10.70;99.90;;;;;;10556642;27;20098;-64
2023/12/23 21:16:31;;;;;;;25.60;5.63;;;10.60;99.90;;;;;;10553784;27;20082;-65
2023/12/23 21:21:33;;;;;;;29.95;3.42;;;10.50;99.90;;;;;;10561599;27;20766;-66
2023/12/23 21:26:37;;;;;;;24.98;3.88;;;10.60;99.90;;;;;;10550389;27;20044;-66
2023/12/23 21:31:40;;;;;;;13.07;2.55;;;10.30;99.90;;;;;;10557645;27;20055;-65
2023/12/23 21:36:42;;;;;;;9.77;2.10;;;10.50;99.90;;;;;;10553080;27;20819;-65
2023/12/23 21:41:45;;;;;;;18.17;3.22;;;10.40;99.90;;;;;;10555311;27;20113;-65
2023/12/23 21:46:49;;;;;;;24.50;3.88;;;10.30;99.90;;;;;;10547003;27;20071;-66
2023/12/23 21:51:51;;;;;;;17.90;2.28;;;10.30;99.90;;;;;;10558174;27;20495;-66
2023/12/23 21:56:55;;;;;;;19.55;3.05;;;10.60;99.90;;;;;;10553214;27;20079;-66
2023/12/23 22:01:57;;;;;;;18.15;2.28;;;10.40;99.90;;;;;;10556098;27;20616;-65
2023/12/23 22:06:59;;;;;;;15.23;2.53;;;10.30;99.90;;;;;;10561340;27;20051;-65
2023/12/23 22:12:03;;;;;;;18.00;3.08;;;10.60;99.90;;;;;;10563949;27;20838;-66
2023/12/23 22:17:05;;;;;;;22.73;3.13;;;10.40;99.90;;;;;;10568447;27;20046;-65
2023/12/23 22:22:07;;;;;;;22.30;3.63;;;10.30;99.90;;;;;;10565312;27;20051;-65
2023/12/23 22:27:11;;;;;;;12.55;1.92;;;10.20;99.90;;;;;;10567234;27;20055;-65
2023/12/23 22:32:13;;;;;;;12.27;2.03;;;10.20;99.90;;;;;;10560420;27;20043;-65
2023/12/23 22:37:16;;;;;;;20.00;3.70;;;10.30;99.90;;;;;;10558118;27;20044;-66
2023/12/23 22:42:19;;;;;;;16.98;3.17;;;10.40;99.90;;;;;;10556987;27;20063;-64
2023/12/23 22:47:21;;;;;;;13.60;3.42;;;10.40;99.90;;;;;;10545449;27;20074;-66
2023/12/23 22:52:23;;;;;;;21.25;4.25;;;10.30;99.90;;;;;;10556667;27;20131;-64
2023/12/23 22:57:29;;;;;;;13.20;2.45;;;10.40;99.90;;;;;;10559104;27;20043;-64
2023/12/23 23:02:31;;;;;;;22.40;3.03;;;10.30;99.90;;;;;;10554118;27;20753;-65
2023/12/23 23:07:33;;;;;;;20.63;3.35;;;10.40;99.90;;;;;;10560402;27;20311;-66
2023/12/23 23:12:37;;;;;;;15.65;2.60;;;10.30;99.90;;;;;;10545910;27;20051;-65
2023/12/23 23:17:39;;;;;;;18.88;3.00;;;10.40;99.90;;;;;;10554812;27;20065;-65
2023/12/23 23:22:41;;;;;;;17.83;2.03;;;10.70;99.90;;;;;;10544286;27;20051;-65
2023/12/23 23:27:44;;;;;;;19.75;2.50;;;10.40;99.90;;;;;;10537188;27;20060;-66
2023/12/23 23:32:47;;;;;;;27.95;3.25;;;10.40;99.90;;;;;;10553502;27;20844;-65
2023/12/23 23:37:49;;;;;;;25.08;3.53;;;10.30;99.90;;;;;;10557385;27;20058;-65
2023/12/23 23:42:53;;;;;;;28.67;4.43;;;10.20;99.90;;;;;;10552718;27;20138;-64
2023/12/23 23:47:55;;;;;;;24.77;3.55;;;10.40;99.90;;;;;;10554372;27;20040;-64
2023/12/23 23:52:57;;;;;;;43.75;6.32;;;10.30;99.90;;;;;;10556605;27;20056;-65
2023/12/23 23:58:03;;;;;;;20.83;2.95;;;10.30;99.90;;;;;;10551373;27;20116;-64
